Accueil
METAR-TAF:

METAR-TAF

Aéroports :

Aéroport de Havre-Saint-Pierre

Havre-Saint-Pierre, Québec, Canada

latitude: 50-17N, longitude: 063-37W, altitude: 33 m

Observation

Le bulletin a été fait il y a 20 minutes, à 03:00 UTC
Vent 7 kt de nord/nord-est
Température 11°C
Humidité 71%
Pression 1016 hPa
Visibilité: 14.5 km
Nuages épars à une hauteur de 24000 ft

METAR: CYGV 190300Z AUTO 02007KT 9SM SCT240 11/06 A2999 RMK SLP158

Heure: 23:20 (03:20 UTC)

Prévision

Le bulletin a été fait il y a 1 heure et 42 minutes, à 01:38 UTC
Prévision valable du 19 à 02 UTC au 19 à 14 UTC
Vent 7 kt de nord/nord-est
Visibilité: 10 km
Quelques nuages à une hauteur de 24000 ft

TAF: CYGV 190138Z 1902/1914 02007KT P6SM FEW240 RMK FCST BASED ON AUTO OBS. NXT FCST BY 190800Z

Observations et prévisions météorologiques de plus de 4000 aéroports (messages METAR et TAF).

Les stations disponibles sont représentées par des disques jaunes et rouges sur la carte.

Passer la souris dessus pour voir le nom de la station.

Cliquer dessus pour voir les observations et prévisions météorologiques.

Pour changer de carte: cliquez sur les boutons verts avec une croix noire pour zoomer, sur le bouton vert avec un tiret pour effectuer un zoom arrière, ou sur les flèches vertes pour les cartes adjacentes.


METAR-TAF: